sensor_id;sensor_type;location;lat;lon;timestamp;P1;durP1;ratioP1;P2;durP2;ratioP2
34489;SDS011;20730;49.372;7.324;2024-03-02T00:00:20;4.55;;;3.97;;
34489;SDS011;20730;49.372;7.324;2024-03-02T00:02:48;6.25;;;4.20;;
34489;SDS011;20730;49.372;7.324;2024-03-02T00:05:16;5.38;;;3.42;;
34489;SDS011;20730;49.372;7.324;2024-03-02T00:07:44;5.28;;;3.45;;
34489;SDS011;20730;49.372;7.324;2024-03-02T00:10:14;5.88;;;3.40;;
34489;SDS011;20730;49.372;7.324;2024-03-02T00:12:42;5.88;;;3.75;;
34489;SDS011;20730;49.372;7.324;2024-03-02T00:15:24;5.50;;;3.80;;
34489;SDS011;20730;49.372;7.324;2024-03-02T00:17:56;4.93;;;3.50;;
34489;SDS011;20730;49.372;7.324;2024-03-02T00:20:23;5.00;;;3.63;;
34489;SDS011;20730;49.372;7.324;2024-03-02T00:22:50;4.35;;;3.40;;
34489;SDS011;20730;49.372;7.324;2024-03-02T00:25:17;3.92;;;2.83;;
34489;SDS011;20730;49.372;7.324;2024-03-02T00:27:47;5.05;;;2.90;;
34489;SDS011;20730;49.372;7.324;2024-03-02T00:33:06;4.40;;;2.75;;
34489;SDS011;20730;49.372;7.324;2024-03-02T00:35:34;3.72;;;2.50;;
34489;SDS011;20730;49.372;7.324;2024-03-02T00:38:06;9.07;;;3.10;;
34489;SDS011;20730;49.372;7.324;2024-03-02T00:40:33;6.65;;;4.18;;
34489;SDS011;20730;49.372;7.324;2024-03-02T00:43:00;8.23;;;4.18;;
34489;SDS011;20730;49.372;7.324;2024-03-02T00:45:28;6.88;;;4.05;;
34489;SDS011;20730;49.372;7.324;2024-03-02T00:47:55;14.23;;;6.20;;
34489;SDS011;20730;49.372;7.324;2024-03-02T00:50:22;14.10;;;7.47;;
34489;SDS011;20730;49.372;7.324;2024-03-02T00:52:56;14.48;;;7.00;;
34489;SDS011;20730;49.372;7.324;2024-03-02T00:55:23;10.77;;;6.35;;
34489;SDS011;20730;49.372;7.324;2024-03-02T00:57:50;8.93;;;4.60;;
34489;SDS011;20730;49.372;7.324;2024-03-02T01:00:16;5.78;;;3.65;;
34489;SDS011;20730;49.372;7.324;2024-03-02T01:02:45;5.20;;;3.17;;
34489;SDS011;20730;49.372;7.324;2024-03-02T01:05:12;4.75;;;3.42;;
34489;SDS011;20730;49.372;7.324;2024-03-02T01:07:39;5.03;;;3.50;;
34489;SDS011;20730;49.372;7.324;2024-03-02T01:10:06;4.30;;;2.88;;
34489;SDS011;20730;49.372;7.324;2024-03-02T01:12:33;4.70;;;3.10;;
34489;SDS011;20730;49.372;7.324;2024-03-02T01:15:00;4.93;;;3.10;;
34489;SDS011;20730;49.372;7.324;2024-03-02T01:17:28;5.10;;;3.50;;
34489;SDS011;20730;49.372;7.324;2024-03-02T01:19:54;6.18;;;3.45;;
34489;SDS011;20730;49.372;7.324;2024-03-02T01:22:22;5.00;;;3.25;;
34489;SDS011;20730;49.372;7.324;2024-03-02T01:24:51;5.80;;;3.50;;
34489;SDS011;20730;49.372;7.324;2024-03-02T01:27:18;5.45;;;3.10;;
34489;SDS011;20730;49.372;7.324;2024-03-02T01:29:45;7.15;;;3.25;;
34489;SDS011;20730;49.372;7.324;2024-03-02T01:32:12;3.67;;;3.03;;
34489;SDS011;20730;49.372;7.324;2024-03-02T01:34:38;3.42;;;2.67;;
34489;SDS011;20730;49.372;7.324;2024-03-02T01:37:05;4.95;;;2.65;;
34489;SDS011;20730;49.372;7.324;2024-03-02T01:39:32;4.55;;;2.67;;
34489;SDS011;20730;49.372;7.324;2024-03-02T01:41:59;3.30;;;2.50;;
34489;SDS011;20730;49.372;7.324;2024-03-02T01:44:25;4.30;;;2.40;;
34489;SDS011;20730;49.372;7.324;2024-03-02T01:46:52;2.92;;;2.30;;
34489;SDS011;20730;49.372;7.324;2024-03-02T01:49:19;3.78;;;2.83;;
34489;SDS011;20730;49.372;7.324;2024-03-02T01:51:45;4.70;;;2.50;;
34489;SDS011;20730;49.372;7.324;2024-03-02T01:54:12;3.17;;;2.50;;
34489;SDS011;20730;49.372;7.324;2024-03-02T01:56:39;4.60;;;2.70;;
34489;SDS011;20730;49.372;7.324;2024-03-02T01:59:06;4.55;;;2.33;;
34489;SDS011;20730;49.372;7.324;2024-03-02T02:01:33;4.85;;;2.70;;
34489;SDS011;20730;49.372;7.324;2024-03-02T02:03:59;3.97;;;2.90;;
34489;SDS011;20730;49.372;7.324;2024-03-02T02:06:27;3.15;;;2.22;;
34489;SDS011;20730;49.372;7.324;2024-03-02T02:08:53;3.88;;;2.30;;
34489;SDS011;20730;49.372;7.324;2024-03-02T02:11:20;3.50;;;2.45;;
34489;SDS011;20730;49.372;7.324;2024-03-02T02:13:47;4.18;;;2.83;;
34489;SDS011;20730;49.372;7.324;2024-03-02T02:16:13;5.07;;;3.58;;
34489;SDS011;20730;49.372;7.324;2024-03-02T02:18:40;4.85;;;3.53;;
34489;SDS011;20730;49.372;7.324;2024-03-02T02:21:07;4.45;;;3.50;;
34489;SDS011;20730;49.372;7.324;2024-03-02T02:23:34;4.90;;;3.45;;
34489;SDS011;20730;49.372;7.324;2024-03-02T02:26:01;4.38;;;3.38;;
34489;SDS011;20730;49.372;7.324;2024-03-02T02:28:29;5.80;;;3.38;;
34489;SDS011;20730;49.372;7.324;2024-03-02T02:30:56;4.70;;;3.58;;
34489;SDS011;20730;49.372;7.324;2024-03-02T02:33:23;5.88;;;3.50;;
34489;SDS011;20730;49.372;7.324;2024-03-02T02:35:50;6.65;;;3.22;;
34489;SDS011;20730;49.372;7.324;2024-03-02T02:38:16;5.05;;;2.97;;
34489;SDS011;20730;49.372;7.324;2024-03-02T02:40:43;4.63;;;2.80;;
34489;SDS011;20730;49.372;7.324;2024-03-02T02:43:10;4.30;;;2.80;;
34489;SDS011;20730;49.372;7.324;2024-03-02T02:45:36;5.30;;;2.53;;
34489;SDS011;20730;49.372;7.324;2024-03-02T02:48:03;3.92;;;2.65;;
34489;SDS011;20730;49.372;7.324;2024-03-02T02:50:31;3.70;;;3.00;;
34489;SDS011;20730;49.372;7.324;2024-03-02T02:52:58;4.57;;;3.20;;
34489;SDS011;20730;49.372;7.324;2024-03-02T02:55:25;5.13;;;2.90;;
34489;SDS011;20730;49.372;7.324;2024-03-02T02:57:51;4.22;;;2.92;;
34489;SDS011;20730;49.372;7.324;2024-03-02T03:00:18;4.10;;;2.80;;
34489;SDS011;20730;49.372;7.324;2024-03-02T03:02:47;3.63;;;2.40;;
34489;SDS011;20730;49.372;7.324;2024-03-02T03:05:16;3.70;;;2.30;;
34489;SDS011;20730;49.372;7.324;2024-03-02T03:07:43;2.47;;;2.05;;
34489;SDS011;20730;49.372;7.324;2024-03-02T03:10:16;4.30;;;2.80;;
34489;SDS011;20730;49.372;7.324;2024-03-02T03:12:43;5.25;;;2.88;;
34489;SDS011;20730;49.372;7.324;2024-03-02T03:15:11;3.63;;;2.70;;
34489;SDS011;20730;49.372;7.324;2024-03-02T03:17:38;4.30;;;2.90;;
34489;SDS011;20730;49.372;7.324;2024-03-02T03:20:05;4.68;;;2.53;;
34489;SDS011;20730;49.372;7.324;2024-03-02T03:22:36;3.45;;;2.50;;
34489;SDS011;20730;49.372;7.324;2024-03-02T03:25:03;6.28;;;2.50;;
34489;SDS011;20730;49.372;7.324;2024-03-02T03:27:30;5.53;;;2.20;;
34489;SDS011;20730;49.372;7.324;2024-03-02T03:29:57;3.90;;;2.47;;
34489;SDS011;20730;49.372;7.324;2024-03-02T03:32:23;3.00;;;2.00;;
34489;SDS011;20730;49.372;7.324;2024-03-02T03:34:51;2.17;;;1.80;;
34489;SDS011;20730;49.372;7.324;2024-03-02T03:37:17;2.53;;;1.80;;
34489;SDS011;20730;49.372;7.324;2024-03-02T03:39:44;2.38;;;1.98;;
34489;SDS011;20730;49.372;7.324;2024-03-02T03:42:11;3.42;;;1.85;;
34489;SDS011;20730;49.372;7.324;2024-03-02T03:44:38;5.75;;;2.53;;
34489;SDS011;20730;49.372;7.324;2024-03-02T03:47:05;3.22;;;2.45;;
34489;SDS011;20730;49.372;7.324;2024-03-02T03:49:32;3.33;;;1.75;;
34489;SDS011;20730;49.372;7.324;2024-03-02T03:51:59;3.15;;;2.00;;
34489;SDS011;20730;49.372;7.324;2024-03-02T03:54:26;3.50;;;1.85;;
34489;SDS011;20730;49.372;7.324;2024-03-02T03:56:53;2.30;;;1.80;;
34489;SDS011;20730;49.372;7.324;2024-03-02T03:59:20;3.13;;;1.90;;
34489;SDS011;20730;49.372;7.324;2024-03-02T04:01:46;5.38;;;1.90;;
34489;SDS011;20730;49.372;7.324;2024-03-02T04:04:13;2.50;;;1.85;;
34489;SDS011;20730;49.372;7.324;2024-03-02T04:06:40;3.50;;;2.20;;
34489;SDS011;20730;49.372;7.324;2024-03-02T04:09:07;5.97;;;1.77;;
34489;SDS011;20730;49.372;7.324;2024-03-02T04:11:33;2.30;;;1.80;;
34489;SDS011;20730;49.372;7.324;2024-03-02T04:14:00;2.97;;;1.80;;
34489;SDS011;20730;49.372;7.324;2024-03-02T04:16:27;1.95;;;1.63;;
34489;SDS011;20730;49.372;7.324;2024-03-02T04:18:55;5.70;;;2.00;;
34489;SDS011;20730;49.372;7.324;2024-03-02T04:21:21;4.30;;;2.00;;
34489;SDS011;20730;49.372;7.324;2024-03-02T04:23:48;4.22;;;1.90;;
34489;SDS011;20730;49.372;7.324;2024-03-02T04:26:15;3.63;;;2.00;;
34489;SDS011;20730;49.372;7.324;2024-03-02T04:28:46;2.78;;;1.88;;
34489;SDS011;20730;49.372;7.324;2024-03-02T04:31:12;3.33;;;1.88;;
34489;SDS011;20730;49.372;7.324;2024-03-02T04:33:40;2.40;;;1.83;;
34489;SDS011;20730;49.372;7.324;2024-03-02T04:36:06;3.58;;;2.00;;
34489;SDS011;20730;49.372;7.324;2024-03-02T04:38:36;2.20;;;1.60;;
34489;SDS011;20730;49.372;7.324;2024-03-02T04:41:03;3.55;;;1.70;;
34489;SDS011;20730;49.372;7.324;2024-03-02T04:43:30;2.70;;;1.60;;
34489;SDS011;20730;49.372;7.324;2024-03-02T04:45:58;2.28;;;1.80;;
34489;SDS011;20730;49.372;7.324;2024-03-02T04:48:25;2.38;;;1.70;;
34489;SDS011;20730;49.372;7.324;2024-03-02T04:50:52;3.25;;;1.90;;
34489;SDS011;20730;49.372;7.324;2024-03-02T04:53:19;4.50;;;2.10;;
34489;SDS011;20730;49.372;7.324;2024-03-02T04:55:45;3.20;;;1.80;;
34489;SDS011;20730;49.372;7.324;2024-03-02T04:58:32;2.55;;;1.65;;
34489;SDS011;20730;49.372;7.324;2024-03-02T05:00:59;3.13;;;1.83;;
34489;SDS011;20730;49.372;7.324;2024-03-02T05:03:25;6.30;;;1.98;;
34489;SDS011;20730;49.372;7.324;2024-03-02T05:05:52;2.47;;;2.00;;
34489;SDS011;20730;49.372;7.324;2024-03-02T05:08:19;3.20;;;1.73;;
34489;SDS011;20730;49.372;7.324;2024-03-02T05:10:45;4.90;;;1.80;;
34489;SDS011;20730;49.372;7.324;2024-03-02T05:13:12;3.47;;;1.95;;
34489;SDS011;20730;49.372;7.324;2024-03-02T05:15:39;3.38;;;1.90;;
34489;SDS011;20730;49.372;7.324;2024-03-02T05:18:07;3.63;;;1.67;;
34489;SDS011;20730;49.372;7.324;2024-03-02T05:20:33;3.03;;;1.95;;
34489;SDS011;20730;49.372;7.324;2024-03-02T05:23:00;3.92;;;1.70;;
34489;SDS011;20730;49.372;7.324;2024-03-02T05:25:27;2.75;;;1.83;;
34489;SDS011;20730;49.372;7.324;2024-03-02T05:27:53;3.15;;;1.90;;
34489;SDS011;20730;49.372;7.324;2024-03-02T05:30:20;4.93;;;1.75;;
34489;SDS011;20730;49.372;7.324;2024-03-02T05:32:47;2.55;;;1.65;;
34489;SDS011;20730;49.372;7.324;2024-03-02T05:35:14;3.38;;;1.90;;
34489;SDS011;20730;49.372;7.324;2024-03-02T05:37:41;3.38;;;1.83;;
34489;SDS011;20730;49.372;7.324;2024-03-02T05:40:07;3.63;;;2.10;;
34489;SDS011;20730;49.372;7.324;2024-03-02T05:42:34;2.55;;;2.28;;
34489;SDS011;20730;49.372;7.324;2024-03-02T05:45:01;2.75;;;2.20;;
34489;SDS011;20730;49.372;7.324;2024-03-02T05:47:28;3.53;;;2.13;;
34489;SDS011;20730;49.372;7.324;2024-03-02T05:49:55;4.95;;;1.85;;
34489;SDS011;20730;49.372;7.324;2024-03-02T05:52:21;3.50;;;2.22;;
34489;SDS011;20730;49.372;7.324;2024-03-02T05:54:48;4.43;;;2.10;;
34489;SDS011;20730;49.372;7.324;2024-03-02T05:57:16;3.92;;;2.10;;
34489;SDS011;20730;49.372;7.324;2024-03-02T06:00:03;3.03;;;1.95;;
34489;SDS011;20730;49.372;7.324;2024-03-02T06:02:40;3.75;;;1.88;;
34489;SDS011;20730;49.372;7.324;2024-03-02T06:05:07;4.23;;;2.10;;
34489;SDS011;20730;49.372;7.324;2024-03-02T06:07:34;3.10;;;1.88;;
34489;SDS011;20730;49.372;7.324;2024-03-02T06:10:00;2.30;;;1.80;;
34489;SDS011;20730;49.372;7.324;2024-03-02T06:12:27;2.60;;;2.10;;
34489;SDS011;20730;49.372;7.324;2024-03-02T06:14:54;2.38;;;1.90;;
34489;SDS011;20730;49.372;7.324;2024-03-02T06:17:21;4.00;;;2.20;;
34489;SDS011;20730;49.372;7.324;2024-03-02T06:19:48;4.93;;;2.47;;
34489;SDS011;20730;49.372;7.324;2024-03-02T06:22:15;2.92;;;2.30;;
34489;SDS011;20730;49.372;7.324;2024-03-02T06:24:41;3.55;;;2.63;;
34489;SDS011;20730;49.372;7.324;2024-03-02T06:27:08;4.70;;;2.45;;
34489;SDS011;20730;49.372;7.324;2024-03-02T06:29:35;4.20;;;2.30;;
34489;SDS011;20730;49.372;7.324;2024-03-02T06:32:01;3.75;;;2.40;;
34489;SDS011;20730;49.372;7.324;2024-03-02T06:34:28;5.22;;;2.70;;
34489;SDS011;20730;49.372;7.324;2024-03-02T06:36:55;3.10;;;2.40;;
34489;SDS011;20730;49.372;7.324;2024-03-02T06:39:22;5.45;;;2.70;;
34489;SDS011;20730;49.372;7.324;2024-03-02T06:41:49;5.32;;;2.95;;
34489;SDS011;20730;49.372;7.324;2024-03-02T06:44:15;3.80;;;2.28;;
34489;SDS011;20730;49.372;7.324;2024-03-02T06:46:42;4.00;;;2.60;;
34489;SDS011;20730;49.372;7.324;2024-03-02T06:49:09;3.30;;;2.38;;
34489;SDS011;20730;49.372;7.324;2024-03-02T06:51:36;3.63;;;2.38;;
34489;SDS011;20730;49.372;7.324;2024-03-02T06:54:03;3.85;;;2.10;;
34489;SDS011;20730;49.372;7.324;2024-03-02T06:56:30;3.60;;;2.40;;
34489;SDS011;20730;49.372;7.324;2024-03-02T06:58:59;3.90;;;2.30;;
34489;SDS011;20730;49.372;7.324;2024-03-02T07:01:26;3.63;;;2.20;;
34489;SDS011;20730;49.372;7.324;2024-03-02T07:03:54;3.33;;;2.25;;
34489;SDS011;20730;49.372;7.324;2024-03-02T07:06:21;4.20;;;2.13;;
34489;SDS011;20730;49.372;7.324;2024-03-02T07:08:47;4.55;;;2.20;;
34489;SDS011;20730;49.372;7.324;2024-03-02T07:11:14;3.08;;;2.33;;
34489;SDS011;20730;49.372;7.324;2024-03-02T07:13:41;3.50;;;1.98;;
34489;SDS011;20730;49.372;7.324;2024-03-02T07:16:07;2.72;;;2.05;;
34489;SDS011;20730;49.372;7.324;2024-03-02T07:18:37;5.05;;;2.55;;
34489;SDS011;20730;49.372;7.324;2024-03-02T07:21:08;3.80;;;2.13;;
34489;SDS011;20730;49.372;7.324;2024-03-02T07:23:34;5.00;;;2.40;;
34489;SDS011;20730;49.372;7.324;2024-03-02T07:26:01;3.72;;;2.15;;
34489;SDS011;20730;49.372;7.324;2024-03-02T07:28:32;4.07;;;2.20;;
34489;SDS011;20730;49.372;7.324;2024-03-02T07:31:03;4.32;;;2.20;;
34489;SDS011;20730;49.372;7.324;2024-03-02T07:33:33;3.05;;;2.30;;
34489;SDS011;20730;49.372;7.324;2024-03-02T07:36:00;4.97;;;2.60;;
34489;SDS011;20730;49.372;7.324;2024-03-02T07:38:30;4.15;;;2.20;;
34489;SDS011;20730;49.372;7.324;2024-03-02T07:40:58;3.00;;;2.38;;
34489;SDS011;20730;49.372;7.324;2024-03-02T07:43:26;3.60;;;2.40;;
34489;SDS011;20730;49.372;7.324;2024-03-02T07:45:53;2.83;;;2.10;;
34489;SDS011;20730;49.372;7.324;2024-03-02T07:48:20;2.92;;;2.30;;
34489;SDS011;20730;49.372;7.324;2024-03-02T07:50:47;3.67;;;2.45;;
34489;SDS011;20730;49.372;7.324;2024-03-02T07:53:14;2.97;;;2.38;;
34489;SDS011;20730;49.372;7.324;2024-03-02T07:55:41;4.03;;;2.50;;
34489;SDS011;20730;49.372;7.324;2024-03-02T07:58:07;4.43;;;2.47;;
34489;SDS011;20730;49.372;7.324;2024-03-02T08:00:34;6.43;;;2.60;;
34489;SDS011;20730;49.372;7.324;2024-03-02T08:03:01;2.95;;;2.30;;
34489;SDS011;20730;49.372;7.324;2024-03-02T08:05:28;5.05;;;2.47;;
34489;SDS011;20730;49.372;7.324;2024-03-02T08:07:55;3.70;;;2.53;;
34489;SDS011;20730;49.372;7.324;2024-03-02T08:10:22;4.22;;;2.45;;
34489;SDS011;20730;49.372;7.324;2024-03-02T08:12:48;3.63;;;2.45;;
34489;SDS011;20730;49.372;7.324;2024-03-02T08:15:15;2.72;;;2.13;;
34489;SDS011;20730;49.372;7.324;2024-03-02T08:17:42;4.20;;;2.20;;
34489;SDS011;20730;49.372;7.324;2024-03-02T08:20:15;4.85;;;2.25;;
34489;SDS011;20730;49.372;7.324;2024-03-02T08:22:42;3.38;;;2.63;;
34489;SDS011;20730;49.372;7.324;2024-03-02T08:25:09;4.80;;;2.50;;
34489;SDS011;20730;49.372;7.324;2024-03-02T08:27:36;2.80;;;2.25;;
34489;SDS011;20730;49.372;7.324;2024-03-02T08:30:03;3.83;;;2.22;;
34489;SDS011;20730;49.372;7.324;2024-03-02T08:32:33;3.42;;;2.63;;
34489;SDS011;20730;49.372;7.324;2024-03-02T08:34:59;4.65;;;2.30;;
34489;SDS011;20730;49.372;7.324;2024-03-02T08:37:26;3.20;;;2.10;;
34489;SDS011;20730;49.372;7.324;2024-03-02T08:39:53;3.55;;;2.20;;
34489;SDS011;20730;49.372;7.324;2024-03-02T08:42:20;8.50;;;2.50;;
34489;SDS011;20730;49.372;7.324;2024-03-02T08:44:47;3.67;;;2.08;;
34489;SDS011;20730;49.372;7.324;2024-03-02T08:47:14;3.00;;;2.00;;
34489;SDS011;20730;49.372;7.324;2024-03-02T08:49:41;2.72;;;2.05;;
34489;SDS011;20730;49.372;7.324;2024-03-02T08:52:07;3.72;;;1.95;;
34489;SDS011;20730;49.372;7.324;2024-03-02T08:54:35;3.35;;;2.17;;
34489;SDS011;20730;49.372;7.324;2024-03-02T08:57:02;7.53;;;2.40;;
34489;SDS011;20730;49.372;7.324;2024-03-02T08:59:28;2.33;;;2.05;;
34489;SDS011;20730;49.372;7.324;2024-03-02T09:01:55;2.63;;;2.17;;
34489;SDS011;20730;49.372;7.324;2024-03-02T09:04:23;3.30;;;2.50;;
34489;SDS011;20730;49.372;7.324;2024-03-02T09:06:53;3.03;;;2.20;;
34489;SDS011;20730;49.372;7.324;2024-03-02T09:09:20;3.17;;;2.30;;
34489;SDS011;20730;49.372;7.324;2024-03-02T09:11:47;4.10;;;2.60;;
34489;SDS011;20730;49.372;7.324;2024-03-02T09:14:14;5.18;;;2.83;;
34489;SDS011;20730;49.372;7.324;2024-03-02T09:16:41;3.70;;;2.53;;
34489;SDS011;20730;49.372;7.324;2024-03-02T09:19:08;3.05;;;2.45;;
34489;SDS011;20730;49.372;7.324;2024-03-02T09:21:36;4.85;;;2.88;;
34489;SDS011;20730;49.372;7.324;2024-03-02T09:24:03;3.72;;;2.60;;
34489;SDS011;20730;49.372;7.324;2024-03-02T09:26:30;3.38;;;2.38;;
34489;SDS011;20730;49.372;7.324;2024-03-02T09:28:57;3.63;;;2.22;;
34489;SDS011;20730;49.372;7.324;2024-03-02T09:31:23;2.63;;;2.33;;
34489;SDS011;20730;49.372;7.324;2024-03-02T09:33:50;3.85;;;2.15;;
34489;SDS011;20730;49.372;7.324;2024-03-02T09:36:20;3.28;;;2.33;;
34489;SDS011;20730;49.372;7.324;2024-03-02T09:38:48;3.72;;;2.20;;
34489;SDS011;20730;49.372;7.324;2024-03-02T09:41:16;4.18;;;2.08;;
34489;SDS011;20730;49.372;7.324;2024-03-02T09:43:43;2.78;;;2.38;;
34489;SDS011;20730;49.372;7.324;2024-03-02T09:46:10;3.08;;;2.10;;
34489;SDS011;20730;49.372;7.324;2024-03-02T09:48:37;3.92;;;2.40;;
34489;SDS011;20730;49.372;7.324;2024-03-02T09:51:04;3.55;;;2.47;;
34489;SDS011;20730;49.372;7.324;2024-03-02T09:53:31;3.83;;;2.28;;
34489;SDS011;20730;49.372;7.324;2024-03-02T09:55:59;6.00;;;2.70;;
34489;SDS011;20730;49.372;7.324;2024-03-02T09:58:26;3.63;;;2.30;;
34489;SDS011;20730;49.372;7.324;2024-03-02T10:00:53;6.75;;;2.50;;
34489;SDS011;20730;49.372;7.324;2024-03-02T10:03:20;4.78;;;2.10;;
34489;SDS011;20730;49.372;7.324;2024-03-02T10:05:51;2.75;;;2.20;;
34489;SDS011;20730;49.372;7.324;2024-03-02T10:08:18;4.18;;;2.58;;
34489;SDS011;20730;49.372;7.324;2024-03-02T10:10:45;6.35;;;2.40;;
34489;SDS011;20730;49.372;7.324;2024-03-02T10:13:13;6.93;;;2.70;;
34489;SDS011;20730;49.372;7.324;2024-03-02T10:15:40;4.28;;;2.28;;
34489;SDS011;20730;49.372;7.324;2024-03-02T10:18:10;4.72;;;2.40;;
34489;SDS011;20730;49.372;7.324;2024-03-02T10:20:42;4.80;;;2.28;;
34489;SDS011;20730;49.372;7.324;2024-03-02T10:23:09;2.42;;;1.95;;
34489;SDS011;20730;49.372;7.324;2024-03-02T10:25:36;3.63;;;2.20;;
34489;SDS011;20730;49.372;7.324;2024-03-02T10:30:44;4.53;;;1.80;;
34489;SDS011;20730;49.372;7.324;2024-03-02T10:33:14;4.50;;;1.95;;
34489;SDS011;20730;49.372;7.324;2024-03-02T10:35:41;4.68;;;2.30;;
34489;SDS011;20730;49.372;7.324;2024-03-02T10:38:08;3.42;;;1.92;;
34489;SDS011;20730;49.372;7.324;2024-03-02T10:40:37;4.07;;;2.60;;
34489;SDS011;20730;49.372;7.324;2024-03-02T10:43:04;3.85;;;2.20;;
34489;SDS011;20730;49.372;7.324;2024-03-02T10:45:32;3.03;;;2.20;;
34489;SDS011;20730;49.372;7.324;2024-03-02T10:47:59;2.05;;;1.73;;
34489;SDS011;20730;49.372;7.324;2024-03-02T10:50:28;3.35;;;2.20;;
34489;SDS011;20730;49.372;7.324;2024-03-02T10:52:56;1.92;;;1.35;;
34489;SDS011;20730;49.372;7.324;2024-03-02T10:55:23;2.40;;;1.90;;
34489;SDS011;20730;49.372;7.324;2024-03-02T10:57:52;5.13;;;1.70;;
34489;SDS011;20730;49.372;7.324;2024-03-02T11:00:26;2.28;;;1.48;;
34489;SDS011;20730;49.372;7.324;2024-03-02T11:02:58;2.95;;;2.00;;
34489;SDS011;20730;49.372;7.324;2024-03-02T11:05:36;3.03;;;2.03;;
34489;SDS011;20730;49.372;7.324;2024-03-02T11:08:06;3.17;;;1.80;;
34489;SDS011;20730;49.372;7.324;2024-03-02T11:10:34;4.10;;;1.95;;
34489;SDS011;20730;49.372;7.324;2024-03-02T11:13:06;3.22;;;1.90;;
34489;SDS011;20730;49.372;7.324;2024-03-02T11:15:35;4.63;;;1.27;;
34489;SDS011;20730;49.372;7.324;2024-03-02T11:18:05;1.77;;;1.17;;
34489;SDS011;20730;49.372;7.324;2024-03-02T11:23:07;2.28;;;1.20;;
34489;SDS011;20730;49.372;7.324;2024-03-02T11:25:34;1.58;;;1.17;;
34489;SDS011;20730;49.372;7.324;2024-03-02T11:32:59;4.07;;;1.10;;
34489;SDS011;20730;49.372;7.324;2024-03-02T11:35:41;2.10;;;1.00;;
34489;SDS011;20730;49.372;7.324;2024-03-02T11:38:09;1.88;;;1.10;;
34489;SDS011;20730;49.372;7.324;2024-03-02T11:40:36;1.27;;;0.90;;
34489;SDS011;20730;49.372;7.324;2024-03-02T11:43:05;2.45;;;1.25;;
34489;SDS011;20730;49.372;7.324;2024-03-02T11:45:35;1.90;;;1.20;;
34489;SDS011;20730;49.372;7.324;2024-03-02T11:48:06;1.15;;;1.00;;
34489;SDS011;20730;49.372;7.324;2024-03-02T11:50:35;1.13;;;0.70;;
34489;SDS011;20730;49.372;7.324;2024-03-02T11:53:07;6.78;;;0.80;;
34489;SDS011;20730;49.372;7.324;2024-03-02T11:55:35;1.77;;;0.88;;
34489;SDS011;20730;49.372;7.324;2024-03-02T11:58:03;1.88;;;0.77;;
34489;SDS011;20730;49.372;7.324;2024-03-02T12:00:30;1.67;;;1.08;;
34489;SDS011;20730;49.372;7.324;2024-03-02T12:03:01;1.52;;;0.93;;
34489;SDS011;20730;49.372;7.324;2024-03-02T12:05:32;1.20;;;0.70;;
34489;SDS011;20730;49.372;7.324;2024-03-02T12:08:00;0.80;;;0.70;;
34489;SDS011;20730;49.372;7.324;2024-03-02T12:10:30;0.95;;;0.80;;
34489;SDS011;20730;49.372;7.324;2024-03-02T12:15:28;0.60;;;0.60;;
34489;SDS011;20730;49.372;7.324;2024-03-02T12:17:59;1.95;;;0.60;;
34489;SDS011;20730;49.372;7.324;2024-03-02T12:20:28;2.78;;;0.80;;
34489;SDS011;20730;49.372;7.324;2024-03-02T12:22:57;1.85;;;0.88;;
34489;SDS011;20730;49.372;7.324;2024-03-02T12:25:25;1.40;;;0.90;;
34489;SDS011;20730;49.372;7.324;2024-03-02T12:27:56;1.92;;;0.70;;
34489;SDS011;20730;49.372;7.324;2024-03-02T12:30:24;1.42;;;0.80;;
34489;SDS011;20730;49.372;7.324;2024-03-02T12:32:53;0.80;;;0.80;;
34489;SDS011;20730;49.372;7.324;2024-03-02T12:35:20;1.05;;;0.70;;
34489;SDS011;20730;49.372;7.324;2024-03-02T12:37:48;0.55;;;0.52;;
34489;SDS011;20730;49.372;7.324;2024-03-02T12:40:16;0.77;;;0.60;;
34489;SDS011;20730;49.372;7.324;2024-03-02T12:42:46;1.52;;;0.50;;
34489;SDS011;20730;49.372;7.324;2024-03-02T12:45:13;0.43;;;0.40;;
34489;SDS011;20730;49.372;7.324;2024-03-02T12:47:42;1.27;;;0.47;;
34489;SDS011;20730;49.372;7.324;2024-03-02T12:50:09;0.43;;;0.43;;
34489;SDS011;20730;49.372;7.324;2024-03-02T12:52:36;0.70;;;0.40;;
34489;SDS011;20730;49.372;7.324;2024-03-02T12:55:04;0.98;;;0.40;;
34489;SDS011;20730;49.372;7.324;2024-03-02T12:57:32;0.75;;;0.45;;
34489;SDS011;20730;49.372;7.324;2024-03-02T13:00:03;0.68;;;0.30;;
34489;SDS011;20730;49.372;7.324;2024-03-02T13:02:39;0.60;;;0.30;;
34489;SDS011;20730;49.372;7.324;2024-03-02T13:05:07;4.50;;;0.40;;
34489;SDS011;20730;49.372;7.324;2024-03-02T13:07:37;8.90;;;0.70;;
34489;SDS011;20730;49.372;7.324;2024-03-02T13:10:05;0.55;;;0.50;;
34489;SDS011;20730;49.372;7.324;2024-03-02T13:12:35;1.85;;;0.60;;
34489;SDS011;20730;49.372;7.324;2024-03-02T13:15:02;0.60;;;0.60;;
34489;SDS011;20730;49.372;7.324;2024-03-02T13:17:30;1.52;;;0.50;;
34489;SDS011;20730;49.372;7.324;2024-03-02T13:20:04;0.95;;;0.60;;
34489;SDS011;20730;49.372;7.324;2024-03-02T13:22:34;1.65;;;0.50;;
34489;SDS011;20730;49.372;7.324;2024-03-02T13:25:01;1.60;;;0.38;;
34489;SDS011;20730;49.372;7.324;2024-03-02T13:27:32;0.95;;;0.52;;
34489;SDS011;20730;49.372;7.324;2024-03-02T13:29:59;0.73;;;0.47;;
34489;SDS011;20730;49.372;7.324;2024-03-02T13:32:26;2.47;;;0.50;;
34489;SDS011;20730;49.372;7.324;2024-03-02T13:34:53;2.28;;;0.50;;
34489;SDS011;20730;49.372;7.324;2024-03-02T13:37:20;0.95;;;0.45;;
34489;SDS011;20730;49.372;7.324;2024-03-02T13:39:47;16.40;;;1.17;;
34489;SDS011;20730;49.372;7.324;2024-03-02T13:42:14;0.77;;;0.40;;
34489;SDS011;20730;49.372;7.324;2024-03-02T13:44:45;141.90;;;3.38;;
34489;SDS011;20730;49.372;7.324;2024-03-02T13:47:15;1.95;;;0.45;;
34489;SDS011;20730;49.372;7.324;2024-03-02T13:49:41;1.33;;;0.60;;
34489;SDS011;20730;49.372;7.324;2024-03-02T13:52:13;0.55;;;0.47;;
34489;SDS011;20730;49.372;7.324;2024-03-02T13:54:40;0.43;;;0.43;;
34489;SDS011;20730;49.372;7.324;2024-03-02T13:57:08;1.73;;;0.50;;
34489;SDS011;20730;49.372;7.324;2024-03-02T13:59:36;0.40;;;0.40;;
34489;SDS011;20730;49.372;7.324;2024-03-02T14:02:04;2.15;;;0.80;;
34489;SDS011;20730;49.372;7.324;2024-03-02T14:04:32;2.72;;;0.50;;
34489;SDS011;20730;49.372;7.324;2024-03-02T14:07:00;1.25;;;0.60;;
34489;SDS011;20730;49.372;7.324;2024-03-02T14:09:27;0.50;;;0.50;;
34489;SDS011;20730;49.372;7.324;2024-03-02T14:11:54;11.25;;;1.15;;
34489;SDS011;20730;49.372;7.324;2024-03-02T14:14:22;10.35;;;0.80;;
34489;SDS011;20730;49.372;7.324;2024-03-02T14:16:49;17.67;;;1.25;;
34489;SDS011;20730;49.372;7.324;2024-03-02T14:19:16;0.85;;;0.50;;
34489;SDS011;20730;49.372;7.324;2024-03-02T14:21:43;0.80;;;0.50;;
34489;SDS011;20730;49.372;7.324;2024-03-02T14:24:09;0.95;;;0.50;;
34489;SDS011;20730;49.372;7.324;2024-03-02T14:26:37;0.75;;;0.50;;
34489;SDS011;20730;49.372;7.324;2024-03-02T14:29:04;1.85;;;0.57;;
34489;SDS011;20730;49.372;7.324;2024-03-02T14:31:31;0.60;;;0.50;;
34489;SDS011;20730;49.372;7.324;2024-03-02T14:33:58;0.68;;;0.50;;
34489;SDS011;20730;49.372;7.324;2024-03-02T14:36:29;1.92;;;0.50;;
34489;SDS011;20730;49.372;7.324;2024-03-02T14:38:56;1.10;;;0.50;;
34489;SDS011;20730;49.372;7.324;2024-03-02T14:41:23;0.70;;;0.50;;
34489;SDS011;20730;49.372;7.324;2024-03-02T14:43:51;0.95;;;0.45;;
34489;SDS011;20730;49.372;7.324;2024-03-02T14:46:18;0.65;;;0.63;;
34489;SDS011;20730;49.372;7.324;2024-03-02T14:48:45;0.77;;;0.50;;
34489;SDS011;20730;49.372;7.324;2024-03-02T14:51:12;0.60;;;0.60;;
34489;SDS011;20730;49.372;7.324;2024-03-02T14:53:39;1.35;;;0.40;;
34489;SDS011;20730;49.372;7.324;2024-03-02T14:56:06;0.70;;;0.47;;
34489;SDS011;20730;49.372;7.324;2024-03-02T14:58:33;0.80;;;0.60;;
34489;SDS011;20730;49.372;7.324;2024-03-02T15:01:01;0.63;;;0.50;;
34489;SDS011;20730;49.372;7.324;2024-03-02T15:03:29;0.77;;;0.55;;
34489;SDS011;20730;49.372;7.324;2024-03-02T15:05:56;0.80;;;0.40;;